sensor_id;sensor_type;location;lat;lon;timestamp;temperature;humidity
26703;DHT22;14316;51.074;3.704;2024-02-15T00:00:13;12.80;99.90
26703;DHT22;14316;51.074;3.704;2024-02-15T00:02:42;12.80;99.90
26703;DHT22;14316;51.074;3.704;2024-02-15T00:05:13;12.90;99.90
26703;DHT22;14316;51.074;3.704;2024-02-15T00:07:43;12.90;99.90
26703;DHT22;14316;51.074;3.704;2024-02-15T00:10:09;12.90;99.90
26703;DHT22;14316;51.074;3.704;2024-02-15T00:12:35;12.70;99.90
26703;DHT22;14316;51.074;3.704;2024-02-15T00:15:02;12.60;99.90
26703;DHT22;14316;51.074;3.704;2024-02-15T00:17:29;12.60;99.90
26703;DHT22;14316;51.074;3.704;2024-02-15T00:19:57;12.70;99.90
26703;DHT22;14316;51.074;3.704;2024-02-15T00:22:25;12.90;99.90
26703;DHT22;14316;51.074;3.704;2024-02-15T00:24:51;12.80;99.90
26703;DHT22;14316;51.074;3.704;2024-02-15T00:27:17;12.70;99.90
26703;DHT22;14316;51.074;3.704;2024-02-15T00:29:45;12.70;99.90
26703;DHT22;14316;51.074;3.704;2024-02-15T00:32:12;12.60;99.90
26703;DHT22;14316;51.074;3.704;2024-02-15T00:34:38;12.60;99.90
26703;DHT22;14316;51.074;3.704;2024-02-15T00:37:04;12.50;99.90
26703;DHT22;14316;51.074;3.704;2024-02-15T00:39:31;12.50;99.90
26703;DHT22;14316;51.074;3.704;2024-02-15T00:41:57;12.50;99.90
26703;DHT22;14316;51.074;3.704;2024-02-15T00:44:28;12.60;99.90
26703;DHT22;14316;51.074;3.704;2024-02-15T00:47:01;12.50;99.90
26703;DHT22;14316;51.074;3.704;2024-02-15T00:49:31;12.60;99.90
26703;DHT22;14316;51.074;3.704;2024-02-15T00:51:57;12.60;99.90
26703;DHT22;14316;51.074;3.704;2024-02-15T00:54:23;12.70;99.90
26703;DHT22;14316;51.074;3.704;2024-02-15T00:56:49;12.80;99.90
26703;DHT22;14316;51.074;3.704;2024-02-15T00:59:15;12.70;99.90
26703;DHT22;14316;51.074;3.704;2024-02-15T01:01:41;12.70;99.90
26703;DHT22;14316;51.074;3.704;2024-02-15T01:04:08;12.70;99.90
26703;DHT22;14316;51.074;3.704;2024-02-15T01:06:35;12.80;99.90
26703;DHT22;14316;51.074;3.704;2024-02-15T01:09:02;12.70;99.90
26703;DHT22;14316;51.074;3.704;2024-02-15T01:11:29;12.80;99.90
26703;DHT22;14316;51.074;3.704;2024-02-15T01:13:58;12.80;99.90
26703;DHT22;14316;51.074;3.704;2024-02-15T01:16:24;12.80;99.90
26703;DHT22;14316;51.074;3.704;2024-02-15T01:18:50;12.80;99.90
26703;DHT22;14316;51.074;3.704;2024-02-15T01:21:16;12.80;99.90
26703;DHT22;14316;51.074;3.704;2024-02-15T01:23:42;12.80;99.90
26703;DHT22;14316;51.074;3.704;2024-02-15T01:26:09;12.80;99.90
26703;DHT22;14316;51.074;3.704;2024-02-15T01:28:38;12.80;99.90
26703;DHT22;14316;51.074;3.704;2024-02-15T01:31:03;12.70;99.90
26703;DHT22;14316;51.074;3.704;2024-02-15T01:33:29;12.60;99.90
26703;DHT22;14316;51.074;3.704;2024-02-15T01:35:57;12.60;99.90
26703;DHT22;14316;51.074;3.704;2024-02-15T01:38:23;12.60;99.90
26703;DHT22;14316;51.074;3.704;2024-02-15T01:40:48;12.50;99.90
26703;DHT22;14316;51.074;3.704;2024-02-15T01:43:14;12.50;99.90
26703;DHT22;14316;51.074;3.704;2024-02-15T01:45:41;12.50;99.90
26703;DHT22;14316;51.074;3.704;2024-02-15T01:48:10;12.50;99.90
26703;DHT22;14316;51.074;3.704;2024-02-15T01:50:39;12.40;99.90
26703;DHT22;14316;51.074;3.704;2024-02-15T01:53:07;12.30;99.90
26703;DHT22;14316;51.074;3.704;2024-02-15T01:55:34;12.40;99.90
26703;DHT22;14316;51.074;3.704;2024-02-15T01:58:01;12.50;99.90
26703;DHT22;14316;51.074;3.704;2024-02-15T02:00:27;12.50;99.90
26703;DHT22;14316;51.074;3.704;2024-02-15T02:02:55;12.50;99.90
26703;DHT22;14316;51.074;3.704;2024-02-15T02:05:27;12.50;99.90
26703;DHT22;14316;51.074;3.704;2024-02-15T02:07:53;12.40;99.90
26703;DHT22;14316;51.074;3.704;2024-02-15T02:10:19;12.40;99.90
26703;DHT22;14316;51.074;3.704;2024-02-15T02:12:45;12.30;99.90
26703;DHT22;14316;51.074;3.704;2024-02-15T02:15:11;12.50;99.90
26703;DHT22;14316;51.074;3.704;2024-02-15T02:17:37;12.30;99.90
26703;DHT22;14316;51.074;3.704;2024-02-15T02:20:03;12.30;99.90
26703;DHT22;14316;51.074;3.704;2024-02-15T02:22:34;12.30;99.90
26703;DHT22;14316;51.074;3.704;2024-02-15T02:25:06;12.30;99.90
26703;DHT22;14316;51.074;3.704;2024-02-15T02:27:35;12.30;99.90
26703;DHT22;14316;51.074;3.704;2024-02-15T02:30:08;12.40;99.90
26703;DHT22;14316;51.074;3.704;2024-02-15T02:32:43;12.40;99.90
26703;DHT22;14316;51.074;3.704;2024-02-15T02:35:09;12.30;99.90
26703;DHT22;14316;51.074;3.704;2024-02-15T02:37:41;12.30;99.90
26703;DHT22;14316;51.074;3.704;2024-02-15T02:40:08;12.30;99.90
26703;DHT22;14316;51.074;3.704;2024-02-15T02:42:48;12.30;99.90
26703;DHT22;14316;51.074;3.704;2024-02-15T02:45:13;12.30;99.90
26703;DHT22;14316;51.074;3.704;2024-02-15T02:47:39;12.20;99.90
26703;DHT22;14316;51.074;3.704;2024-02-15T02:50:05;12.20;99.90
26703;DHT22;14316;51.074;3.704;2024-02-15T02:52:35;12.20;99.90
26703;DHT22;14316;51.074;3.704;2024-02-15T02:55:04;12.20;99.90
26703;DHT22;14316;51.074;3.704;2024-02-15T02:57:34;12.20;99.90
26703;DHT22;14316;51.074;3.704;2024-02-15T03:00:04;12.20;99.90
26703;DHT22;14316;51.074;3.704;2024-02-15T03:02:30;12.20;99.90
26703;DHT22;14316;51.074;3.704;2024-02-15T03:04:56;12.20;99.90
26703;DHT22;14316;51.074;3.704;2024-02-15T03:07:23;12.20;99.90
26703;DHT22;14316;51.074;3.704;2024-02-15T03:09:49;12.10;99.90
26703;DHT22;14316;51.074;3.704;2024-02-15T03:12:14;12.10;99.90
26703;DHT22;14316;51.074;3.704;2024-02-15T03:14:43;12.10;99.90
26703;DHT22;14316;51.074;3.704;2024-02-15T03:17:08;12.10;99.90
26703;DHT22;14316;51.074;3.704;2024-02-15T03:19:34;12.20;99.90
26703;DHT22;14316;51.074;3.704;2024-02-15T03:22:00;12.30;99.90
26703;DHT22;14316;51.074;3.704;2024-02-15T03:24:26;12.30;99.90
26703;DHT22;14316;51.074;3.704;2024-02-15T03:26:51;12.20;99.90
26703;DHT22;14316;51.074;3.704;2024-02-15T03:29:19;12.20;99.90
26703;DHT22;14316;51.074;3.704;2024-02-15T03:31:47;12.20;99.90
26703;DHT22;14316;51.074;3.704;2024-02-15T03:34:14;12.10;99.90
26703;DHT22;14316;51.074;3.704;2024-02-15T03:36:41;12.20;99.90
26703;DHT22;14316;51.074;3.704;2024-02-15T03:39:07;12.20;99.90
26703;DHT22;14316;51.074;3.704;2024-02-15T03:41:33;12.20;99.90
26703;DHT22;14316;51.074;3.704;2024-02-15T03:43:59;12.10;99.90
26703;DHT22;14316;51.074;3.704;2024-02-15T03:46:26;12.10;99.90
26703;DHT22;14316;51.074;3.704;2024-02-15T03:48:53;12.10;99.90
26703;DHT22;14316;51.074;3.704;2024-02-15T03:51:22;12.10;99.90
26703;DHT22;14316;51.074;3.704;2024-02-15T03:53:50;12.10;99.90
26703;DHT22;14316;51.074;3.704;2024-02-15T03:56:18;12.10;99.90
26703;DHT22;14316;51.074;3.704;2024-02-15T03:58:44;12.10;99.90
26703;DHT22;14316;51.074;3.704;2024-02-15T04:01:10;12.10;99.90
26703;DHT22;14316;51.074;3.704;2024-02-15T04:03:40;12.20;99.90
26703;DHT22;14316;51.074;3.704;2024-02-15T04:06:06;12.30;99.90
26703;DHT22;14316;51.074;3.704;2024-02-15T04:08:32;12.50;99.90
26703;DHT22;14316;51.074;3.704;2024-02-15T04:10:59;12.40;99.90
26703;DHT22;14316;51.074;3.704;2024-02-15T04:13:24;12.60;99.90
26703;DHT22;14316;51.074;3.704;2024-02-15T04:15:50;12.50;99.90
26703;DHT22;14316;51.074;3.704;2024-02-15T04:18:19;12.50;99.90
26703;DHT22;14316;51.074;3.704;2024-02-15T04:20:45;12.50;99.90
26703;DHT22;14316;51.074;3.704;2024-02-15T04:23:12;12.30;99.90
26703;DHT22;14316;51.074;3.704;2024-02-15T04:25:37;12.20;99.90
26703;DHT22;14316;51.074;3.704;2024-02-15T04:28:04;12.20;99.90
26703;DHT22;14316;51.074;3.704;2024-02-15T04:30:30;12.20;99.90
26703;DHT22;14316;51.074;3.704;2024-02-15T04:32:56;12.20;99.90
26703;DHT22;14316;51.074;3.704;2024-02-15T04:35:22;12.20;99.90
26703;DHT22;14316;51.074;3.704;2024-02-15T04:37:48;12.20;99.90
26703;DHT22;14316;51.074;3.704;2024-02-15T04:40:14;12.20;99.90
26703;DHT22;14316;51.074;3.704;2024-02-15T04:42:40;12.20;99.90
26703;DHT22;14316;51.074;3.704;2024-02-15T04:45:09;12.20;99.90
26703;DHT22;14316;51.074;3.704;2024-02-15T04:47:43;12.30;99.90
26703;DHT22;14316;51.074;3.704;2024-02-15T04:50:10;12.30;99.90
26703;DHT22;14316;51.074;3.704;2024-02-15T04:52:44;12.30;99.90
26703;DHT22;14316;51.074;3.704;2024-02-15T04:55:11;12.30;99.90
26703;DHT22;14316;51.074;3.704;2024-02-15T04:57:37;12.20;99.90
26703;DHT22;14316;51.074;3.704;2024-02-15T05:00:06;12.30;99.90
26703;DHT22;14316;51.074;3.704;2024-02-15T05:02:38;12.30;99.90
26703;DHT22;14316;51.074;3.704;2024-02-15T05:05:09;12.30;99.90
26703;DHT22;14316;51.074;3.704;2024-02-15T05:07:36;12.30;99.90
26703;DHT22;14316;51.074;3.704;2024-02-15T05:10:05;12.30;99.90
26703;DHT22;14316;51.074;3.704;2024-02-15T05:12:36;12.40;99.90
26703;DHT22;14316;51.074;3.704;2024-02-15T05:15:02;12.40;99.90
26703;DHT22;14316;51.074;3.704;2024-02-15T05:17:37;12.30;99.90
26703;DHT22;14316;51.074;3.704;2024-02-15T05:20:10;12.30;99.90
26703;DHT22;14316;51.074;3.704;2024-02-15T05:22:38;12.30;99.90
26703;DHT22;14316;51.074;3.704;2024-02-15T05:25:07;12.30;99.90
26703;DHT22;14316;51.074;3.704;2024-02-15T05:27:36;12.30;99.90
26703;DHT22;14316;51.074;3.704;2024-02-15T05:30:03;12.30;99.90
26703;DHT22;14316;51.074;3.704;2024-02-15T05:32:33;12.30;99.90
26703;DHT22;14316;51.074;3.704;2024-02-15T05:35:04;12.30;99.90
26703;DHT22;14316;51.074;3.704;2024-02-15T05:37:30;12.40;99.90
26703;DHT22;14316;51.074;3.704;2024-02-15T05:39:59;12.40;99.90
26703;DHT22;14316;51.074;3.704;2024-02-15T05:42:24;12.40;99.90
26703;DHT22;14316;51.074;3.704;2024-02-15T05:44:50;12.40;99.90
26703;DHT22;14316;51.074;3.704;2024-02-15T05:47:16;12.40;99.90
26703;DHT22;14316;51.074;3.704;2024-02-15T05:49:41;12.40;99.90
26703;DHT22;14316;51.074;3.704;2024-02-15T05:52:10;12.40;99.90
26703;DHT22;14316;51.074;3.704;2024-02-15T05:54:36;12.40;99.90
26703;DHT22;14316;51.074;3.704;2024-02-15T05:57:01;12.40;99.90
26703;DHT22;14316;51.074;3.704;2024-02-15T05:59:27;12.50;99.90
26703;DHT22;14316;51.074;3.704;2024-02-15T06:01:53;12.60;99.90
26703;DHT22;14316;51.074;3.704;2024-02-15T06:04:18;12.60;99.90
26703;DHT22;14316;51.074;3.704;2024-02-15T06:06:44;12.60;99.90
26703;DHT22;14316;51.074;3.704;2024-02-15T06:09:14;12.70;99.90
26703;DHT22;14316;51.074;3.704;2024-02-15T06:11:39;12.70;99.90
26703;DHT22;14316;51.074;3.704;2024-02-15T06:14:07;12.60;99.90
26703;DHT22;14316;51.074;3.704;2024-02-15T06:16:45;12.70;99.90
26703;DHT22;14316;51.074;3.704;2024-02-15T06:19:11;12.60;99.90
26703;DHT22;14316;51.074;3.704;2024-02-15T06:21:37;12.60;99.90
26703;DHT22;14316;51.074;3.704;2024-02-15T06:24:03;12.50;99.90
26703;DHT22;14316;51.074;3.704;2024-02-15T06:26:29;12.50;99.90
26703;DHT22;14316;51.074;3.704;2024-02-15T06:28:54;12.50;99.90
26703;DHT22;14316;51.074;3.704;2024-02-15T06:31:40;12.50;99.90
26703;DHT22;14316;51.074;3.704;2024-02-15T06:34:24;12.50;99.90
26703;DHT22;14316;51.074;3.704;2024-02-15T06:37:08;12.50;99.90
26703;DHT22;14316;51.074;3.704;2024-02-15T06:39:52;12.60;99.90
26703;DHT22;14316;51.074;3.704;2024-02-15T06:42:18;12.60;99.90
26703;DHT22;14316;51.074;3.704;2024-02-15T06:44:46;12.50;99.90
26703;DHT22;14316;51.074;3.704;2024-02-15T06:47:12;12.50;99.90
26703;DHT22;14316;51.074;3.704;2024-02-15T06:49:41;12.40;99.90
26703;DHT22;14316;51.074;3.704;2024-02-15T06:52:08;12.40;99.90
26703;DHT22;14316;51.074;3.704;2024-02-15T06:54:38;12.30;99.90
26703;DHT22;14316;51.074;3.704;2024-02-15T06:57:04;12.30;99.90
26703;DHT22;14316;51.074;3.704;2024-02-15T06:59:30;12.30;99.90
26703;DHT22;14316;51.074;3.704;2024-02-15T07:02:01;12.30;99.90
26703;DHT22;14316;51.074;3.704;2024-02-15T07:04:27;12.30;99.90
26703;DHT22;14316;51.074;3.704;2024-02-15T07:06:53;12.30;99.90
26703;DHT22;14316;51.074;3.704;2024-02-15T07:09:23;12.30;99.90
26703;DHT22;14316;51.074;3.704;2024-02-15T07:11:50;12.30;99.90
26703;DHT22;14316;51.074;3.704;2024-02-15T07:14:16;12.30;99.90
26703;DHT22;14316;51.074;3.704;2024-02-15T07:16:48;12.20;99.90
26703;DHT22;14316;51.074;3.704;2024-02-15T07:19:15;12.20;99.90
26703;DHT22;14316;51.074;3.704;2024-02-15T07:21:42;12.20;99.90
26703;DHT22;14316;51.074;3.704;2024-02-15T07:24:08;12.20;99.90
26703;DHT22;14316;51.074;3.704;2024-02-15T07:26:35;12.10;99.90
26703;DHT22;14316;51.074;3.704;2024-02-15T07:29:02;12.10;99.90
26703;DHT22;14316;51.074;3.704;2024-02-15T07:31:31;12.00;99.90
26703;DHT22;14316;51.074;3.704;2024-02-15T07:33:58;11.90;99.90
26703;DHT22;14316;51.074;3.704;2024-02-15T07:36:24;11.90;99.90
26703;DHT22;14316;51.074;3.704;2024-02-15T07:38:52;11.80;99.90
26703;DHT22;14316;51.074;3.704;2024-02-15T07:41:22;11.80;99.90
26703;DHT22;14316;51.074;3.704;2024-02-15T07:43:49;11.80;99.90
26703;DHT22;14316;51.074;3.704;2024-02-15T07:46:16;11.80;99.90
26703;DHT22;14316;51.074;3.704;2024-02-15T07:48:45;11.80;99.90
26703;DHT22;14316;51.074;3.704;2024-02-15T07:51:16;11.80;99.90
26703;DHT22;14316;51.074;3.704;2024-02-15T07:53:43;11.80;99.90
26703;DHT22;14316;51.074;3.704;2024-02-15T07:56:10;11.90;99.90
26703;DHT22;14316;51.074;3.704;2024-02-15T07:58:39;11.90;99.90
26703;DHT22;14316;51.074;3.704;2024-02-15T08:01:07;11.80;99.90
26703;DHT22;14316;51.074;3.704;2024-02-15T08:03:33;11.80;99.90
26703;DHT22;14316;51.074;3.704;2024-02-15T08:06:01;11.80;99.90
26703;DHT22;14316;51.074;3.704;2024-02-15T08:08:26;11.80;99.90
26703;DHT22;14316;51.074;3.704;2024-02-15T08:10:52;11.70;99.90
26703;DHT22;14316;51.074;3.704;2024-02-15T08:13:18;11.80;99.90
26703;DHT22;14316;51.074;3.704;2024-02-15T08:15:48;11.90;99.90
26703;DHT22;14316;51.074;3.704;2024-02-15T08:18:17;11.80;99.90
26703;DHT22;14316;51.074;3.704;2024-02-15T08:20:44;11.80;99.90
26703;DHT22;14316;51.074;3.704;2024-02-15T08:23:10;11.80;99.90
26703;DHT22;14316;51.074;3.704;2024-02-15T08:25:38;11.80;99.90
26703;DHT22;14316;51.074;3.704;2024-02-15T08:28:05;11.80;99.90
26703;DHT22;14316;51.074;3.704;2024-02-15T08:30:33;11.80;99.90
26703;DHT22;14316;51.074;3.704;2024-02-15T08:32:58;11.80;99.90
26703;DHT22;14316;51.074;3.704;2024-02-15T08:35:24;11.80;99.90
26703;DHT22;14316;51.074;3.704;2024-02-15T08:37:50;11.80;99.90
26703;DHT22;14316;51.074;3.704;2024-02-15T08:40:17;11.80;99.90
26703;DHT22;14316;51.074;3.704;2024-02-15T08:42:45;11.90;99.90
26703;DHT22;14316;51.074;3.704;2024-02-15T08:45:14;11.90;99.90
26703;DHT22;14316;51.074;3.704;2024-02-15T08:47:40;11.90;99.90
26703;DHT22;14316;51.074;3.704;2024-02-15T08:50:07;12.10;99.90
26703;DHT22;14316;51.074;3.704;2024-02-15T08:52:37;12.30;99.90
26703;DHT22;14316;51.074;3.704;2024-02-15T08:55:23;12.20;99.90
26703;DHT22;14316;51.074;3.704;2024-02-15T08:57:53;12.20;99.90
26703;DHT22;14316;51.074;3.704;2024-02-15T09:00:20;12.20;99.90
26703;DHT22;14316;51.074;3.704;2024-02-15T09:02:46;12.30;99.90
26703;DHT22;14316;51.074;3.704;2024-02-15T09:05:13;12.40;99.90
26703;DHT22;14316;51.074;3.704;2024-02-15T09:07:43;12.40;99.90
26703;DHT22;14316;51.074;3.704;2024-02-15T09:10:12;12.50;99.90
26703;DHT22;14316;51.074;3.704;2024-02-15T09:12:39;12.60;99.90
26703;DHT22;14316;51.074;3.704;2024-02-15T09:15:06;12.90;99.90
26703;DHT22;14316;51.074;3.704;2024-02-15T09:17:33;13.10;99.90
26703;DHT22;14316;51.074;3.704;2024-02-15T09:20:14;13.00;99.90
26703;DHT22;14316;51.074;3.704;2024-02-15T09:22:50;13.00;99.90
26703;DHT22;14316;51.074;3.704;2024-02-15T09:25:19;13.10;99.90
26703;DHT22;14316;51.074;3.704;2024-02-15T09:27:46;13.30;99.90
26703;DHT22;14316;51.074;3.704;2024-02-15T09:30:14;13.40;99.90
26703;DHT22;14316;51.074;3.704;2024-02-15T09:32:41;13.60;99.90
26703;DHT22;14316;51.074;3.704;2024-02-15T09:35:08;13.70;99.90
26703;DHT22;14316;51.074;3.704;2024-02-15T09:37:48;13.80;99.90
26703;DHT22;14316;51.074;3.704;2024-02-15T09:40:18;14.10;99.90
26703;DHT22;14316;51.074;3.704;2024-02-15T09:42:45;14.40;99.90
26703;DHT22;14316;51.074;3.704;2024-02-15T09:45:12;14.60;99.90
26703;DHT22;14316;51.074;3.704;2024-02-15T09:47:40;14.60;99.90
26703;DHT22;14316;51.074;3.704;2024-02-15T09:50:13;14.60;99.90
26703;DHT22;14316;51.074;3.704;2024-02-15T09:52:40;14.50;99.90
26703;DHT22;14316;51.074;3.704;2024-02-15T09:55:09;14.30;99.90
26703;DHT22;14316;51.074;3.704;2024-02-15T09:57:39;14.20;99.90
26703;DHT22;14316;51.074;3.704;2024-02-15T10:00:05;14.30;99.90
26703;DHT22;14316;51.074;3.704;2024-02-15T10:02:35;14.40;99.90
26703;DHT22;14316;51.074;3.704;2024-02-15T10:05:03;14.40;99.90
26703;DHT22;14316;51.074;3.704;2024-02-15T10:07:29;14.50;99.90
26703;DHT22;14316;51.074;3.704;2024-02-15T10:09:55;14.50;99.90
26703;DHT22;14316;51.074;3.704;2024-02-15T10:12:21;14.70;99.90
26703;DHT22;14316;51.074;3.704;2024-02-15T10:14:51;14.80;99.90
26703;DHT22;14316;51.074;3.704;2024-02-15T10:17:20;15.10;99.90
26703;DHT22;14316;51.074;3.704;2024-02-15T10:20:15;15.30;99.90
26703;DHT22;14316;51.074;3.704;2024-02-15T10:22:41;15.50;99.90
26703;DHT22;14316;51.074;3.704;2024-02-15T10:25:13;15.70;99.90
26703;DHT22;14316;51.074;3.704;2024-02-15T10:27:40;16.10;99.90
26703;DHT22;14316;51.074;3.704;2024-02-15T10:30:19;16.10;99.90
26703;DHT22;14316;51.074;3.704;2024-02-15T10:32:46;16.40;99.90
26703;DHT22;14316;51.074;3.704;2024-02-15T10:35:22;16.50;99.90
26703;DHT22;14316;51.074;3.704;2024-02-15T10:37:49;16.80;99.90
26703;DHT22;14316;51.074;3.704;2024-02-15T10:40:22;16.90;99.90
26703;DHT22;14316;51.074;3.704;2024-02-15T10:42:51;17.20;99.90
26703;DHT22;14316;51.074;3.704;2024-02-15T10:45:17;17.40;99.90
26703;DHT22;14316;51.074;3.704;2024-02-15T10:47:49;17.80;99.90
26703;DHT22;14316;51.074;3.704;2024-02-15T10:50:16;18.50;99.90
26703;DHT22;14316;51.074;3.704;2024-02-15T10:52:55;19.20;99.90
26703;DHT22;14316;51.074;3.704;2024-02-15T10:55:48;19.50;99.90
26703;DHT22;14316;51.074;3.704;2024-02-15T10:58:20;19.50;99.90
26703;DHT22;14316;51.074;3.704;2024-02-15T11:00:51;20.00;99.90
26703;DHT22;14316;51.074;3.704;2024-02-15T11:03:40;20.10;99.90
26703;DHT22;14316;51.074;3.704;2024-02-15T11:06:09;20.20;99.90
26703;DHT22;14316;51.074;3.704;2024-02-15T11:08:39;20.60;99.90
26703;DHT22;14316;51.074;3.704;2024-02-15T11:11:05;22.40;99.90
26703;DHT22;14316;51.074;3.704;2024-02-15T11:13:31;22.10;99.90
26703;DHT22;14316;51.074;3.704;2024-02-15T11:15:57;22.30;99.90
26703;DHT22;14316;51.074;3.704;2024-02-15T11:18:45;23.10;99.90
26703;DHT22;14316;51.074;3.704;2024-02-15T11:21:54;23.80;99.90
26703;DHT22;14316;51.074;3.704;2024-02-15T11:27:01;22.20;99.90
26703;DHT22;14316;51.074;3.704;2024-02-15T11:30:01;21.70;99.90
26703;DHT22;14316;51.074;3.704;2024-02-15T11:32:47;21.20;99.90
26703;DHT22;14316;51.074;3.704;2024-02-15T11:35:23;21.00;99.90
26703;DHT22;14316;51.074;3.704;2024-02-15T11:40:22;19.90;99.90
26703;DHT22;14316;51.074;3.704;2024-02-15T11:42:52;19.50;99.90
26703;DHT22;14316;51.074;3.704;2024-02-15T11:45:19;19.40;99.90
26703;DHT22;14316;51.074;3.704;2024-02-15T11:47:48;19.10;99.90
26703;DHT22;14316;51.074;3.704;2024-02-15T11:50:18;19.60;99.90
26703;DHT22;14316;51.074;3.704;2024-02-15T11:52:46;20.40;99.90
26703;DHT22;14316;51.074;3.704;2024-02-15T11:55:18;21.30;99.90
26703;DHT22;14316;51.074;3.704;2024-02-15T11:57:57;21.70;99.90
26703;DHT22;14316;51.074;3.704;2024-02-15T12:00:31;22.00;99.90
26703;DHT22;14316;51.074;3.704;2024-02-15T12:03:16;22.00;99.90
26703;DHT22;14316;51.074;3.704;2024-02-15T12:06:01;21.40;99.90
26703;DHT22;14316;51.074;3.704;2024-02-15T12:08:46;20.90;99.90
26703;DHT22;14316;51.074;3.704;2024-02-15T12:11:31;20.40;99.90
26703;DHT22;14316;51.074;3.704;2024-02-15T12:14:16;20.10;99.90
26703;DHT22;14316;51.074;3.704;2024-02-15T12:17:02;20.00;99.90
26703;DHT22;14316;51.074;3.704;2024-02-15T12:19:48;20.00;99.90
26703;DHT22;14316;51.074;3.704;2024-02-15T12:22:17;19.80;99.90
26703;DHT22;14316;51.074;3.704;2024-02-15T12:24:52;19.50;99.90
26703;DHT22;14316;51.074;3.704;2024-02-15T12:27:20;19.30;99.90
26703;DHT22;14316;51.074;3.704;2024-02-15T12:29:55;19.10;99.90
26703;DHT22;14316;51.074;3.704;2024-02-15T12:32:26;19.10;99.90
26703;DHT22;14316;51.074;3.704;2024-02-15T12:35:09;19.30;99.90
26703;DHT22;14316;51.074;3.704;2024-02-15T12:37:36;19.60;99.90
26703;DHT22;14316;51.074;3.704;2024-02-15T12:40:17;19.80;99.90
26703;DHT22;14316;51.074;3.704;2024-02-15T12:42:44;20.00;99.90
26703;DHT22;14316;51.074;3.704;2024-02-15T12:45:25;20.50;99.90
26703;DHT22;14316;51.074;3.704;2024-02-15T12:47:55;20.50;99.90
26703;DHT22;14316;51.074;3.704;2024-02-15T12:50:31;20.30;99.90
26703;DHT22;14316;51.074;3.704;2024-02-15T12:52:57;20.10;99.90
26703;DHT22;14316;51.074;3.704;2024-02-15T12:55:37;19.80;99.90
26703;DHT22;14316;51.074;3.704;2024-02-15T12:58:04;19.80;99.90
26703;DHT22;14316;51.074;3.704;2024-02-15T13:00:35;20.00;99.90
26703;DHT22;14316;51.074;3.704;2024-02-15T13:03:06;19.90;99.90
26703;DHT22;14316;51.074;3.704;2024-02-15T13:05:37;20.00;99.90
26703;DHT22;14316;51.074;3.704;2024-02-15T13:08:05;19.90;99.90
26703;DHT22;14316;51.074;3.704;2024-02-15T13:10:36;20.30;99.90
26703;DHT22;14316;51.074;3.704;2024-02-15T13:13:01;20.50;99.90
26703;DHT22;14316;51.074;3.704;2024-02-15T13:15:28;21.00;99.90
26703;DHT22;14316;51.074;3.704;2024-02-15T13:17:58;21.50;99.90
26703;DHT22;14316;51.074;3.704;2024-02-15T13:20:24;21.70;99.90
26703;DHT22;14316;51.074;3.704;2024-02-15T13:23:01;21.80;99.90
26703;DHT22;14316;51.074;3.704;2024-02-15T13:25:49;22.00;99.90
26703;DHT22;14316;51.074;3.704;2024-02-15T13:28:16;22.00;99.90
26703;DHT22;14316;51.074;3.704;2024-02-15T13:30:42;21.80;99.90
26703;DHT22;14316;51.074;3.704;2024-02-15T13:33:14;21.70;99.90
26703;DHT22;14316;51.074;3.704;2024-02-15T13:35:40;21.50;99.90
26703;DHT22;14316;51.074;3.704;2024-02-15T13:38:06;21.50;99.90
26703;DHT22;14316;51.074;3.704;2024-02-15T13:40:34;21.40;99.90
26703;DHT22;14316;51.074;3.704;2024-02-15T13:43:01;21.50;99.90
26703;DHT22;14316;51.074;3.704;2024-02-15T13:45:40;21.20;99.90
26703;DHT22;14316;51.074;3.704;2024-02-15T13:48:06;21.00;99.90
26703;DHT22;14316;51.074;3.704;2024-02-15T13:50:33;21.10;99.90
26703;DHT22;14316;51.074;3.704;2024-02-15T13:52:59;21.00;99.90
26703;DHT22;14316;51.074;3.704;2024-02-15T13:55:25;20.70;99.90
26703;DHT22;14316;51.074;3.704;2024-02-15T13:57:51;20.40;99.90
26703;DHT22;14316;51.074;3.704;2024-02-15T14:00:18;20.30;99.90
26703;DHT22;14316;51.074;3.704;2024-02-15T14:02:51;20.10;99.90
26703;DHT22;14316;51.074;3.704;2024-02-15T14:05:19;19.60;99.90
26703;DHT22;14316;51.074;3.704;2024-02-15T14:07:52;19.70;99.90
26703;DHT22;14316;51.074;3.704;2024-02-15T14:10:22;19.90;99.90
26703;DHT22;14316;51.074;3.704;2024-02-15T14:12:48;20.30;99.90
26703;DHT22;14316;51.074;3.704;2024-02-15T14:15:17;20.70;99.90
26703;DHT22;14316;51.074;3.704;2024-02-15T14:17:43;20.90;99.90
26703;DHT22;14316;51.074;3.704;2024-02-15T14:20:10;20.80;99.90
26703;DHT22;14316;51.074;3.704;2024-02-15T14:22:40;20.60;99.90
26703;DHT22;14316;51.074;3.704;2024-02-15T14:25:06;20.60;99.90
26703;DHT22;14316;51.074;3.704;2024-02-15T14:27:32;20.70;99.90
26703;DHT22;14316;51.074;3.704;2024-02-15T14:29:58;20.80;99.90
26703;DHT22;14316;51.074;3.704;2024-02-15T14:32:45;21.10;99.90
26703;DHT22;14316;51.074;3.704;2024-02-15T14:35:33;20.80;99.90
26703;DHT22;14316;51.074;3.704;2024-02-15T14:38:06;20.50;99.90
26703;DHT22;14316;51.074;3.704;2024-02-15T14:40:35;20.60;99.90
26703;DHT22;14316;51.074;3.704;2024-02-15T14:43:01;20.80;99.90
26703;DHT22;14316;51.074;3.704;2024-02-15T14:45:28;21.00;99.90
26703;DHT22;14316;51.074;3.704;2024-02-15T14:47:54;21.20;99.90
26703;DHT22;14316;51.074;3.704;2024-02-15T14:50:20;21.10;99.90
26703;DHT22;14316;51.074;3.704;2024-02-15T14:52:47;20.70;99.90
26703;DHT22;14316;51.074;3.704;2024-02-15T14:55:15;20.50;99.90
26703;DHT22;14316;51.074;3.704;2024-02-15T14:57:43;20.10;99.90
26703;DHT22;14316;51.074;3.704;2024-02-15T15:00:08;19.90;99.90
26703;DHT22;14316;51.074;3.704;2024-02-15T15:02:38;19.80;99.90
26703;DHT22;14316;51.074;3.704;2024-02-15T15:05:04;19.70;99.90
26703;DHT22;14316;51.074;3.704;2024-02-15T15:07:48;19.90;99.90
26703;DHT22;14316;51.074;3.704;2024-02-15T15:10:32;20.30;99.90
26703;DHT22;14316;51.074;3.704;2024-02-15T15:13:19;20.50;99.90
26703;DHT22;14316;51.074;3.704;2024-02-15T15:15:45;20.50;99.90
26703;DHT22;14316;51.074;3.704;2024-02-15T15:18:12;20.50;99.90
26703;DHT22;14316;51.074;3.704;2024-02-15T15:20:38;20.20;99.90
26703;DHT22;14316;51.074;3.704;2024-02-15T15:23:04;20.10;99.90
26703;DHT22;14316;51.074;3.704;2024-02-15T15:25:34;19.70;99.90
26703;DHT22;14316;51.074;3.704;2024-02-15T15:28:07;19.70;99.90
26703;DHT22;14316;51.074;3.704;2024-02-15T15:30:33;19.70;99.90
26703;DHT22;14316;51.074;3.704;2024-02-15T15:32:58;19.50;99.90
26703;DHT22;14316;51.074;3.704;2024-02-15T15:35:27;19.40;99.90
26703;DHT22;14316;51.074;3.704;2024-02-15T15:37:54;19.30;99.90
26703;DHT22;14316;51.074;3.704;2024-02-15T15:40:25;19.20;99.90
26703;DHT22;14316;51.074;3.704;2024-02-15T15:42:52;19.10;99.90
26703;DHT22;14316;51.074;3.704;2024-02-15T15:45:18;18.90;99.90
26703;DHT22;14316;51.074;3.704;2024-02-15T15:47:43;18.70;99.90